createdAt,value
2022-08-03T00:01:45.460Z,21.22
2022-08-03T00:04:13.332Z,21.19
2022-08-03T00:06:41.384Z,21.14
2022-08-03T00:09:11.054Z,21.17
2022-08-03T00:11:39.684Z,21.15
2022-08-03T00:14:08.182Z,21.08
2022-08-03T00:16:36.701Z,21.06
2022-08-03T00:19:04.957Z,21.01
2022-08-03T00:21:33.023Z,21.01
2022-08-03T00:24:00.895Z,20.89
2022-08-03T00:26:31.631Z,20.85
2022-08-03T00:28:59.444Z,20.86
2022-08-03T00:31:47.041Z,20.74
2022-08-03T00:34:15.261Z,20.79
2022-08-03T00:36:43.421Z,20.66
2022-08-03T00:39:11.253Z,20.58
2022-08-03T00:41:40.534Z,20.58
2022-08-03T00:44:08.351Z,20.61
2022-08-03T00:46:36.257Z,20.62
2022-08-03T00:49:04.151Z,20.58
2022-08-03T00:51:33.217Z,20.46
2022-08-03T00:54:01.557Z,20.42
2022-08-03T00:56:29.421Z,20.33
2022-08-03T00:58:59.664Z,20.33
2022-08-03T01:01:32.371Z,20.35
2022-08-03T01:04:01.098Z,20.29
2022-08-03T01:06:35.270Z,20.28
2022-08-03T01:09:13.443Z,20.15
2022-08-03T01:12:00.795Z,20.10
2022-08-03T01:14:39.442Z,20.13
2022-08-03T01:17:14.364Z,20.13
2022-08-03T01:19:47.864Z,20.15
2022-08-03T01:22:45.449Z,20.14
2022-08-03T01:25:25.056Z,20.03
2022-08-03T01:28:02.805Z,19.90
2022-08-03T01:30:34.757Z,19.79
2022-08-03T01:33:05.822Z,19.84
2022-08-03T01:35:38.770Z,19.64
2022-08-03T01:38:12.918Z,19.74
2022-08-03T01:40:42.397Z,19.63
2022-08-03T01:43:13.772Z,19.65
2022-08-03T01:45:44.910Z,19.62
2022-08-03T01:48:17.136Z,19.72
2022-08-03T01:50:47.874Z,19.67
2022-08-03T01:53:18.290Z,19.69
2022-08-03T01:55:48.504Z,19.65
2022-08-03T01:58:19.776Z,19.65
2022-08-03T02:00:51.142Z,19.66
2022-08-03T02:03:21.450Z,19.62
2022-08-03T02:06:01.245Z,19.53
2022-08-03T02:08:38.797Z,19.50
2022-08-03T02:11:07.629Z,19.50
2022-08-03T02:13:36.244Z,19.53
2022-08-03T02:16:06.436Z,19.57
2022-08-03T02:18:35.261Z,19.52
2022-08-03T02:21:10.591Z,19.51
2022-08-03T02:23:39.837Z,19.42
2022-08-03T02:26:13.121Z,19.39
2022-08-03T02:28:44.181Z,19.41
2022-08-03T02:31:17.751Z,19.32
2022-08-03T02:33:50.333Z,19.27
2022-08-03T02:36:22.970Z,19.27
2022-08-03T02:38:54.871Z,19.19
2022-08-03T02:41:28.165Z,19.21
2022-08-03T02:44:06.011Z,19.16
2022-08-03T02:46:39.649Z,19.04
2022-08-03T02:49:40.443Z,19.05
2022-08-03T02:51:58.860Z,18.99
2022-08-03T02:54:28.615Z,18.98
2022-08-03T02:56:59.523Z,18.97
2022-08-03T02:59:31.126Z,18.84
2022-08-03T03:02:03.308Z,18.88
2022-08-03T03:04:33.281Z,18.84
2022-08-03T03:07:03.699Z,18.79
2022-08-03T03:09:40.483Z,18.86
2022-08-03T03:12:11.817Z,18.81
2022-08-03T03:14:40.852Z,18.73
2022-08-03T03:17:12.215Z,18.61
2022-08-03T03:19:41.688Z,18.53
2022-08-03T03:22:10.629Z,18.57
2022-08-03T03:24:39.444Z,18.52
2022-08-03T03:27:07.711Z,18.42
2022-08-03T03:29:39.236Z,18.41
2022-08-03T03:32:09.117Z,18.41
2022-08-03T03:34:38.815Z,18.38
2022-08-03T03:37:06.994Z,18.31
2022-08-03T03:39:36.364Z,18.33
2022-08-03T03:42:04.538Z,18.36
2022-08-03T03:44:32.783Z,18.32
2022-08-03T03:47:00.709Z,18.30
2022-08-03T03:49:28.968Z,18.31
2022-08-03T03:51:58.287Z,18.18
2022-08-03T03:54:29.298Z,18.14
2022-08-03T03:56:57.362Z,18.11
2022-08-03T03:59:25.256Z,18.14
2022-08-03T04:01:58.850Z,18.18
2022-08-03T04:04:53.088Z,18.11
2022-08-03T04:07:42.942Z,18.04
2022-08-03T04:10:32.486Z,18.09
2022-08-03T04:13:01.496Z,18.06
2022-08-03T04:15:30.386Z,18.07
2022-08-03T04:18:00.112Z,18.12
2022-08-03T04:20:31.574Z,18.18
2022-08-03T04:23:02.855Z,18.15
2022-08-03T04:25:42.740Z,18.21
2022-08-03T04:28:30.502Z,18.22
2022-08-03T04:31:00.968Z,18.39
2022-08-03T04:33:32.618Z,18.41
2022-08-03T04:36:03.672Z,18.34
2022-08-03T04:38:37.773Z,18.40
2022-08-03T04:41:06.596Z,18.42
2022-08-03T04:43:35.640Z,18.53
2022-08-03T04:46:04.458Z,18.51
2022-08-03T04:48:32.489Z,18.62
2022-08-03T04:51:04.297Z,18.64
2022-08-03T04:53:33.526Z,18.72
2022-08-03T04:56:06.433Z,18.81
2022-08-03T04:58:34.453Z,18.85
2022-08-03T05:01:02.801Z,19.00
2022-08-03T05:03:31.644Z,19.07
2022-08-03T05:06:09.726Z,19.15
2022-08-03T05:08:45.241Z,19.17
2022-08-03T05:11:15.699Z,19.25
2022-08-03T05:13:43.572Z,19.27
2022-08-03T05:16:11.818Z,19.36
2022-08-03T05:18:39.663Z,19.59
2022-08-03T05:21:07.481Z,19.60
2022-08-03T05:23:35.512Z,19.60
2022-08-03T05:26:05.126Z,19.84
2022-08-03T05:28:32.949Z,20.12
2022-08-03T05:31:00.800Z,20.07
2022-08-03T05:33:28.641Z,20.29
2022-08-03T05:36:03.525Z,20.37
2022-08-03T05:38:34.388Z,20.54
2022-08-03T05:41:22.327Z,20.59
2022-08-03T05:43:52.341Z,21.18
2022-08-03T05:46:20.592Z,21.39
2022-08-03T05:48:48.459Z,21.66
2022-08-03T05:51:16.601Z,21.69
2022-08-03T05:53:44.995Z,22.11
2022-08-03T05:56:16.307Z,21.96
2022-08-03T05:58:46.163Z,22.07
2022-08-03T06:01:14.254Z,22.71
2022-08-03T06:03:42.173Z,22.57
2022-08-03T06:06:10.017Z,23.13
2022-08-03T06:08:38.337Z,23.07
2022-08-03T06:11:06.176Z,23.31
2022-08-03T06:13:36.010Z,23.58
2022-08-03T06:16:04.630Z,23.43
2022-08-03T06:18:32.520Z,23.99
2022-08-03T06:21:14.391Z,23.93
2022-08-03T06:26:28.075Z,24.41
2022-08-03T06:28:57.667Z,24.68
2022-08-03T06:31:32.757Z,24.90
2022-08-03T06:34:33.267Z,24.98
2022-08-03T06:36:52.396Z,25.14
2022-08-03T06:39:20.865Z,25.14
2022-08-03T06:41:52.480Z,26.05
2022-08-03T06:44:21.856Z,26.43
2022-08-03T06:46:49.736Z,26.78
2022-08-03T06:49:17.760Z,27.27
2022-08-03T06:52:05.037Z,27.31
2022-08-03T06:54:33.550Z,28.05
2022-08-03T06:57:01.672Z,28.16
2022-08-03T07:00:07.177Z,28.76
2022-08-03T07:02:20.630Z,29.24
2022-08-03T07:04:48.862Z,29.21
2022-08-03T07:07:17.390Z,29.22
2022-08-03T07:09:57.034Z,28.57
2022-08-03T07:12:27.782Z,28.43
2022-08-03T07:15:01.196Z,27.80
2022-08-03T07:17:30.891Z,29.81
2022-08-03T07:19:59.558Z,29.29
2022-08-03T07:22:27.608Z,29.70
2022-08-03T07:24:55.515Z,29.34
2022-08-03T07:27:23.548Z,29.38
2022-08-03T07:29:51.429Z,30.01
2022-08-03T07:32:20.651Z,30.19
2022-08-03T07:34:48.465Z,30.69
2022-08-03T07:37:16.514Z,30.93
2022-08-03T07:39:44.647Z,29.82
2022-08-03T07:42:12.621Z,30.98
2022-08-03T07:44:40.453Z,30.55
2022-08-03T07:47:08.260Z,30.68
2022-08-03T07:49:42.367Z,31.14
2022-08-03T07:52:28.567Z,30.97
2022-08-03T07:54:56.590Z,30.87
2022-08-03T07:57:24.442Z,31.13
2022-08-03T08:00:01.760Z,31.65
2022-08-03T08:02:39.955Z,31.70
2022-08-03T08:05:10.759Z,32.54
2022-08-03T08:07:38.810Z,32.95
2022-08-03T08:10:08.153Z,33.27
2022-08-03T08:12:35.917Z,33.74
2022-08-03T08:15:03.945Z,33.01
2022-08-03T08:17:31.848Z,32.68
2022-08-03T08:19:59.597Z,33.12
2022-08-03T08:22:30.636Z,34.40
2022-08-03T08:25:01.322Z,34.41
2022-08-03T08:28:29.875Z,34.06
2022-08-03T08:30:20.908Z,34.47
2022-08-03T08:32:49.892Z,34.75
2022-08-03T08:35:18.793Z,34.80
2022-08-03T08:37:50.940Z,34.85
2022-08-03T08:40:21.616Z,36.30
2022-08-03T08:42:58.559Z,35.34
2022-08-03T08:45:27.361Z,36.30
2022-08-03T08:48:00.338Z,36.90
2022-08-03T08:50:31.137Z,36.08
2022-08-03T08:53:03.660Z,37.03
2022-08-03T08:55:58.287Z,37.14
2022-08-03T08:58:23.307Z,38.41
2022-08-03T09:00:52.192Z,37.69
2022-08-03T09:03:22.734Z,38.06
2022-08-03T09:05:57.901Z,37.80
2022-08-03T09:08:27.266Z,38.29
2022-08-03T09:10:55.421Z,38.97
2022-08-03T09:13:23.622Z,39.35
2022-08-03T09:16:11.666Z,38.69
2022-08-03T09:18:39.665Z,38.85
2022-08-03T09:21:37.803Z,39.28
2022-08-03T09:24:16.501Z,40.28
2022-08-03T09:26:54.113Z,40.22
2022-08-03T09:29:22.816Z,40.04
2022-08-03T09:31:50.621Z,39.44
2022-08-03T09:34:19.543Z,38.53
2022-08-03T09:36:48.971Z,38.82
2022-08-03T09:39:19.716Z,37.76
2022-08-03T09:42:09.187Z,38.80
2022-08-03T09:44:37.992Z,38.62
2022-08-03T09:47:06.909Z,39.30
2022-08-03T09:49:34.904Z,39.27
2022-08-03T09:52:32.613Z,40.41
2022-08-03T09:55:02.877Z,39.65
2022-08-03T09:57:31.853Z,39.71
2022-08-03T10:00:12.352Z,36.60
2022-08-03T10:02:40.647Z,38.60
2022-08-03T10:05:11.513Z,37.90
2022-08-03T10:07:49.654Z,39.51
2022-08-03T10:10:30.128Z,39.91
2022-08-03T10:13:01.093Z,38.76
2022-08-03T10:16:23.070Z,39.20
2022-08-03T10:18:17.272Z,39.39
2022-08-03T10:20:50.677Z,39.18
2022-08-03T10:23:20.105Z,40.40
2022-08-03T10:25:55.736Z,40.46
2022-08-03T10:28:24.104Z,40.76
2022-08-03T10:30:54.698Z,40.63
2022-08-03T10:33:49.602Z,39.05
2022-08-03T10:36:15.186Z,40.76
2022-08-03T10:38:52.332Z,39.95
2022-08-03T10:41:22.959Z,38.80
2022-08-03T10:43:54.011Z,40.14
2022-08-03T10:46:22.809Z,39.30
2022-08-03T10:48:52.761Z,40.32
2022-08-03T10:51:21.693Z,40.07
2022-08-03T10:53:54.590Z,39.81
2022-08-03T10:57:14.533Z,40.47
2022-08-03T11:00:00.373Z,40.73
2022-08-03T11:03:02.890Z,40.29
2022-08-03T11:05:32.065Z,39.98
2022-08-03T11:08:19.008Z,40.13
2022-08-03T11:10:47.376Z,40.92
2022-08-03T11:13:19.188Z,39.26
2022-08-03T11:15:50.325Z,38.46
2022-08-03T11:18:18.917Z,40.49
2022-08-03T11:20:48.900Z,40.33
2022-08-03T11:23:18.298Z,39.61
2022-08-03T11:26:13.541Z,39.25
2022-08-03T11:28:44.625Z,40.24
2022-08-03T11:31:50.413Z,40.33
2022-08-03T11:34:19.367Z,39.83
2022-08-03T11:37:28.750Z,39.69
2022-08-03T11:39:59.337Z,40.26
2022-08-03T11:42:45.574Z,40.79
2022-08-03T11:45:15.464Z,40.54
2022-08-03T11:47:50.218Z,40.75
2022-08-03T11:50:21.147Z,40.35
2022-08-03T11:52:50.241Z,40.09
2022-08-03T11:55:21.601Z,40.55
2022-08-03T11:59:01.705Z,40.91
2022-08-03T12:00:38.843Z,40.37
2022-08-03T12:03:09.514Z,41.35
2022-08-03T12:05:52.289Z,41.52
2022-08-03T12:08:32.717Z,41.05
2022-08-03T12:11:03.108Z,40.92
2022-08-03T12:14:44.423Z,40.99
2022-08-03T12:16:28.703Z,40.91
2022-08-03T12:18:58.346Z,40.75
2022-08-03T12:21:26.722Z,40.93
2022-08-03T12:23:58.982Z,40.91
2022-08-03T12:26:27.319Z,40.09
2022-08-03T12:28:55.497Z,40.78
2022-08-03T12:31:23.584Z,41.70
2022-08-03T12:34:02.022Z,40.52
2022-08-03T12:36:30.984Z,41.17
2022-08-03T12:39:00.098Z,41.36
2022-08-03T12:41:34.182Z,41.62
2022-08-03T12:44:03.576Z,40.85
2022-08-03T12:46:34.293Z,41.69
2022-08-03T12:49:06.799Z,40.70
2022-08-03T12:51:36.829Z,41.55
2022-08-03T12:54:06.486Z,41.39
2022-08-03T12:56:34.612Z,41.27
2022-08-03T12:59:02.564Z,42.63
2022-08-03T13:01:38.243Z,42.76
2022-08-03T13:04:33.305Z,42.18
2022-08-03T13:07:03.531Z,40.83
2022-08-03T13:09:33.111Z,40.63
2022-08-03T13:12:08.749Z,39.81
2022-08-03T13:14:36.737Z,38.63
2022-08-03T13:17:06.258Z,38.74
2022-08-03T13:19:36.317Z,38.80
2022-08-03T13:22:12.405Z,38.48
2022-08-03T13:24:40.596Z,38.83
2022-08-03T13:28:04.928Z,39.22
2022-08-03T13:29:57.508Z,39.31
2022-08-03T13:32:25.505Z,39.43
2022-08-03T13:34:54.733Z,39.97
2022-08-03T13:37:23.095Z,40.63
2022-08-03T13:39:59.589Z,40.71
2022-08-03T13:42:31.396Z,39.40
2022-08-03T13:45:00.017Z,39.62
2022-08-03T13:47:28.321Z,40.34
2022-08-03T13:50:01.807Z,40.37
2022-08-03T13:52:31.971Z,40.83
2022-08-03T13:55:00.668Z,40.33
2022-08-03T13:58:04.187Z,40.74
2022-08-03T14:00:27.344Z,40.64
2022-08-03T14:03:16.070Z,40.51
2022-08-03T14:05:45.500Z,40.59
2022-08-03T14:08:13.706Z,40.52
2022-08-03T14:10:43.949Z,40.38
2022-08-03T14:13:12.890Z,41.01
2022-08-03T14:15:50.047Z,40.39
2022-08-03T14:18:29.136Z,40.69
2022-08-03T14:21:06.594Z,39.94
2022-08-03T14:23:35.814Z,39.78
2022-08-03T14:26:03.965Z,38.58
2022-08-03T14:28:32.119Z,38.84
2022-08-03T14:31:00.400Z,39.10
2022-08-03T14:33:29.329Z,38.02
2022-08-03T14:35:57.792Z,38.04
2022-08-03T14:38:27.001Z,37.49
2022-08-03T14:40:54.881Z,37.33
2022-08-03T14:43:22.797Z,37.39
2022-08-03T14:45:52.425Z,37.70
2022-08-03T14:50:29.294Z,36.99
2022-08-03T14:51:08.426Z,36.67
2022-08-03T14:53:37.597Z,36.83
2022-08-03T14:56:10.096Z,36.75
2022-08-03T14:58:39.240Z,36.47
2022-08-03T15:02:05.604Z,36.58
2022-08-03T15:03:55.604Z,36.39
2022-08-03T15:06:23.504Z,36.18
2022-08-03T15:09:13.861Z,36.08
2022-08-03T15:11:41.072Z,36.15
2022-08-03T15:14:09.683Z,36.31
2022-08-03T15:16:38.077Z,36.39
2022-08-03T15:20:03.917Z,36.26
2022-08-03T15:21:53.756Z,36.20
2022-08-03T15:24:22.977Z,36.07
2022-08-03T15:26:52.233Z,35.96
2022-08-03T15:30:04.715Z,35.77
2022-08-03T15:32:09.560Z,35.73
2022-08-03T15:34:37.723Z,35.66
2022-08-03T15:37:15.098Z,35.93
2022-08-03T15:39:59.518Z,35.72
2022-08-03T15:42:29.484Z,35.59
2022-08-03T15:44:58.102Z,35.64
2022-08-03T15:47:25.944Z,35.56
2022-08-03T15:49:53.810Z,35.14
2022-08-03T15:52:21.695Z,35.35
2022-08-03T15:54:50.834Z,35.42
2022-08-03T15:57:19.062Z,35.42
2022-08-03T15:59:47.159Z,35.33
2022-08-03T16:02:15.237Z,35.52
2022-08-03T16:04:43.053Z,35.18
2022-08-03T16:07:12.803Z,35.31
2022-08-03T16:09:43.304Z,35.29
2022-08-03T16:12:16.426Z,35.48
2022-08-03T16:14:54.011Z,35.30
2022-08-03T16:17:24.240Z,35.04
2022-08-03T16:19:54.947Z,35.07
2022-08-03T16:22:24.055Z,35.07
2022-08-03T16:24:52.271Z,35.01
2022-08-03T16:27:37.133Z,35.20
2022-08-03T16:30:12.232Z,35.05
2022-08-03T16:32:40.154Z,34.69
2022-08-03T16:35:08.600Z,34.69
2022-08-03T16:37:38.632Z,34.52
2022-08-03T16:40:17.322Z,34.48
2022-08-03T16:42:48.416Z,34.41
2022-08-03T16:45:16.173Z,34.28
2022-08-03T16:47:44.038Z,34.23
2022-08-03T16:50:19.013Z,34.29
2022-08-03T16:52:48.497Z,34.39
2022-08-03T16:55:42.881Z,34.38
2022-08-03T16:58:07.490Z,34.28
2022-08-03T17:00:41.966Z,34.24
2022-08-03T17:03:12.825Z,34.42
2022-08-03T17:05:49.711Z,34.47
2022-08-03T17:08:26.782Z,34.42
2022-08-03T17:10:56.465Z,34.35
2022-08-03T17:13:27.613Z,34.23
2022-08-03T17:16:10.336Z,34.34
2022-08-03T17:18:42.204Z,34.37
2022-08-03T17:21:17.142Z,34.18
2022-08-03T17:23:50.833Z,34.11
2022-08-03T17:26:22.362Z,34.04
2022-08-03T17:28:57.395Z,33.76
2022-08-03T17:31:31.279Z,33.85
2022-08-03T17:34:01.395Z,33.72
2022-08-03T17:36:54.006Z,33.81
2022-08-03T17:39:27.041Z,33.50
2022-08-03T17:42:39.130Z,33.58
2022-08-03T17:44:58.294Z,33.31
2022-08-03T17:47:41.233Z,33.33
2022-08-03T17:50:24.983Z,33.39
2022-08-03T17:53:07.106Z,33.39
2022-08-03T17:55:56.993Z,33.43
2022-08-03T17:58:41.407Z,33.32
2022-08-03T18:02:00.145Z,33.06
2022-08-03T18:04:29.876Z,32.96
2022-08-03T18:07:11.303Z,33.03
2022-08-03T18:10:03.508Z,33.01
2022-08-03T18:12:41.536Z,33.02
2022-08-03T18:15:21.000Z,32.89
2022-08-03T18:17:55.804Z,32.80
2022-08-03T18:20:40.418Z,32.88
2022-08-03T18:23:24.729Z,32.84
2022-08-03T18:26:01.513Z,32.77
2022-08-03T18:28:30.268Z,32.83
2022-08-03T18:30:59.153Z,32.78
2022-08-03T18:34:17.262Z,32.52
2022-08-03T18:36:22.179Z,32.41
2022-08-03T18:38:59.838Z,32.43
2022-08-03T18:41:32.506Z,32.35
2022-08-03T18:44:08.394Z,32.32
2022-08-03T18:47:07.420Z,32.22
2022-08-03T18:49:53.791Z,32.09
2022-08-03T18:52:28.864Z,31.92
2022-08-03T18:55:11.150Z,31.86
2022-08-03T18:57:53.366Z,31.83
2022-08-03T19:00:24.943Z,31.70
2022-08-03T19:03:12.450Z,31.60
2022-08-03T19:06:03.058Z,31.52
2022-08-03T19:08:45.207Z,31.49
2022-08-03T19:11:27.871Z,31.33
2022-08-03T19:13:59.173Z,30.90
2022-08-03T19:16:32.632Z,30.78
2022-08-03T19:19:02.413Z,30.79
2022-08-03T19:21:34.953Z,30.72
2022-08-03T19:24:09.314Z,30.52
2022-08-03T19:26:39.411Z,30.43
2022-08-03T19:29:11.369Z,30.35
2022-08-03T19:31:58.905Z,30.38
2022-08-03T19:34:29.217Z,30.23
2022-08-03T19:36:59.230Z,30.27
2022-08-03T19:39:27.676Z,30.18
2022-08-03T19:42:13.498Z,29.99
2022-08-03T19:44:55.536Z,29.83
2022-08-03T19:47:29.648Z,29.79
2022-08-03T19:50:06.046Z,29.69
2022-08-03T19:52:42.268Z,29.61
2022-08-03T19:55:12.419Z,29.54
2022-08-03T19:57:43.385Z,29.53
2022-08-03T20:00:13.818Z,29.45
2022-08-03T20:02:43.026Z,29.36
2022-08-03T20:05:15.510Z,29.30
2022-08-03T20:07:48.521Z,29.28
2022-08-03T20:10:17.944Z,29.18
2022-08-03T20:12:46.751Z,29.08
2022-08-03T20:15:22.171Z,29.11
2022-08-03T20:17:54.701Z,28.99
2022-08-03T20:20:40.052Z,28.91
2022-08-03T20:23:16.620Z,28.81
2022-08-03T20:25:58.611Z,28.81
2022-08-03T20:28:32.139Z,28.74
2022-08-03T20:31:00.169Z,28.72
2022-08-03T20:33:48.792Z,28.73
2022-08-03T20:36:17.762Z,28.78
2022-08-03T20:38:48.190Z,28.61
2022-08-03T20:41:17.094Z,28.45
2022-08-03T20:43:45.159Z,28.46
2022-08-03T20:46:30.929Z,28.21
2022-08-03T20:49:04.667Z,28.15
2022-08-03T20:51:50.051Z,28.19
2022-08-03T20:54:29.389Z,28.01
2022-08-03T20:56:58.512Z,27.96
2022-08-03T20:59:34.838Z,27.88
2022-08-03T21:02:19.211Z,27.74
2022-08-03T21:04:48.099Z,27.75
2022-08-03T21:07:19.782Z,27.82
2022-08-03T21:09:57.122Z,27.74
2022-08-03T21:12:37.189Z,27.63
2022-08-03T21:15:10.160Z,27.36
2022-08-03T21:18:00.579Z,27.33
2022-08-03T21:20:33.228Z,27.26
2022-08-03T21:23:01.817Z,27.27
2022-08-03T21:25:32.930Z,27.32
2022-08-03T21:28:02.105Z,27.23
2022-08-03T21:30:31.383Z,27.30
2022-08-03T21:32:59.794Z,27.31
2022-08-03T21:35:28.235Z,27.27
2022-08-03T21:38:10.032Z,27.14
2022-08-03T21:40:40.350Z,27.11
2022-08-03T21:43:08.762Z,27.04
2022-08-03T21:45:47.981Z,26.99
2022-08-03T21:48:17.567Z,27.00
2022-08-03T21:50:46.639Z,26.96
2022-08-03T21:53:16.218Z,26.84
2022-08-03T21:55:52.026Z,26.70
2022-08-03T21:58:29.500Z,26.68
2022-08-03T22:00:59.152Z,26.54
2022-08-03T22:03:27.826Z,26.56
2022-08-03T22:06:04.678Z,26.54
2022-08-03T22:08:35.093Z,26.52
2022-08-03T22:11:04.658Z,26.47
2022-08-03T22:13:43.878Z,26.30
2022-08-03T22:16:14.431Z,26.19
2022-08-03T22:18:48.326Z,26.15
2022-08-03T22:21:27.800Z,26.10
2022-08-03T22:24:05.967Z,25.93
2022-08-03T22:26:37.076Z,25.95
2022-08-03T22:29:08.660Z,25.85
2022-08-03T22:31:58.554Z,25.72
2022-08-03T22:34:27.345Z,25.67
2022-08-03T22:37:01.768Z,25.68
2022-08-03T22:39:30.477Z,25.69
2022-08-03T22:42:00.392Z,25.71
2022-08-03T22:44:29.232Z,25.65
2022-08-03T22:46:57.173Z,25.62
2022-08-03T22:49:25.229Z,25.50
2022-08-03T22:51:54.503Z,25.35
2022-08-03T22:54:23.410Z,25.25
2022-08-03T22:56:51.929Z,25.19
2022-08-03T22:59:38.997Z,25.08
2022-08-03T23:02:16.021Z,24.98
2022-08-03T23:04:51.991Z,24.84
2022-08-03T23:07:29.202Z,24.60
2022-08-03T23:09:58.305Z,24.67
2022-08-03T23:12:26.897Z,24.64
2022-08-03T23:14:58.632Z,24.57
2022-08-03T23:17:28.117Z,24.43
2022-08-03T23:20:01.155Z,24.29
2022-08-03T23:22:30.850Z,24.13
2022-08-03T23:25:01.360Z,24.12
2022-08-03T23:27:29.626Z,24.15
2022-08-03T23:29:59.976Z,24.17
2022-08-03T23:32:30.334Z,24.07
2022-08-03T23:35:18.032Z,24.12
2022-08-03T23:38:07.271Z,23.77
2022-08-03T23:40:34.971Z,23.88
2022-08-03T23:43:03.789Z,23.95
2022-08-03T23:45:37.199Z,23.93
2022-08-03T23:48:05.588Z,23.98
2022-08-03T23:50:41.423Z,24.02
2022-08-03T23:53:18.043Z,23.89
2022-08-03T23:55:56.934Z,23.84
2022-08-03T23:58:38.423Z,23.74
